createdAt,value
2019-02-28T00:02:11.337Z,80.47
2019-02-28T00:04:41.610Z,75.93
2019-02-28T00:07:11.905Z,78.13
2019-02-28T00:09:42.155Z,83.23
2019-02-28T00:12:13.534Z,89.87
2019-02-28T00:14:45.600Z,86.03
2019-02-28T00:17:35.047Z,88.93
2019-02-28T00:20:05.624Z,82.47
2019-02-28T00:22:35.807Z,79.10
2019-02-28T00:25:06.250Z,80.70
2019-02-28T00:27:36.528Z,86.73
2019-02-28T00:30:07.215Z,75.97
2019-02-28T00:32:37.506Z,70.83
2019-02-28T00:35:12.972Z,73.47
2019-02-28T00:37:39.937Z,72.20
2019-02-28T00:40:10.604Z,75.00
2019-02-28T00:42:41.242Z,75.80
2019-02-28T00:45:11.936Z,73.27
2019-02-28T00:47:42.163Z,75.17
2019-02-28T00:50:12.536Z,69.90
2019-02-28T00:52:42.668Z,75.17
2019-02-28T00:55:15.226Z,79.27
2019-02-28T00:57:45.854Z,79.53
2019-02-28T01:00:16.804Z,78.77
2019-02-28T01:02:51.886Z,71.23
2019-02-28T01:05:19.229Z,75.37
2019-02-28T01:07:49.798Z,79.43
2019-02-28T01:10:20.048Z,85.27
2019-02-28T01:12:53.463Z,73.90
2019-02-28T01:15:22.267Z,77.90
2019-02-28T01:17:52.486Z,77.20
2019-02-28T01:20:22.673Z,76.67
2019-02-28T01:22:52.932Z,78.23
2019-02-28T01:25:23.176Z,81.10
2019-02-28T01:27:53.394Z,88.30
2019-02-28T01:30:23.904Z,76.20
2019-02-28T01:32:54.163Z,75.33
2019-02-28T01:35:24.351Z,76.33
2019-02-28T01:37:54.573Z,79.83
2019-02-28T01:40:25.238Z,79.13
2019-02-28T01:42:55.473Z,78.90
2019-02-28T01:45:26.031Z,76.70
2019-02-28T01:47:56.351Z,73.63
2019-02-28T01:50:29.624Z,72.60
2019-02-28T01:52:58.483Z,82.20
2019-02-28T01:55:29.394Z,74.73
2019-02-28T01:58:00.434Z,77.90
2019-02-28T02:00:30.611Z,70.97
2019-02-28T02:03:00.930Z,77.47
2019-02-28T02:05:31.115Z,76.57
2019-02-28T02:08:06.556Z,74.60
2019-02-28T02:10:33.264Z,78.17
2019-02-28T02:13:04.320Z,77.77
2019-02-28T02:15:34.688Z,70.70
2019-02-28T02:18:06.386Z,74.60
2019-02-28T02:20:38.200Z,75.83
2019-02-28T02:23:08.783Z,70.57
2019-02-28T02:25:39.059Z,73.50
2019-02-28T02:28:09.270Z,80.47
2019-02-28T02:30:39.465Z,73.13
2019-02-28T02:33:13.578Z,74.67
2019-02-28T02:35:42.607Z,73.03
2019-02-28T02:38:13.384Z,74.53
2019-02-28T02:40:43.597Z,82.20
2019-02-28T02:43:14.099Z,78.37
2019-02-28T02:45:44.302Z,74.47
2019-02-28T02:48:15.250Z,69.83
2019-02-28T02:50:45.540Z,74.93
2019-02-28T02:53:15.746Z,71.97
2019-02-28T02:55:45.851Z,73.30
2019-02-28T02:58:16.081Z,78.87
2019-02-28T03:00:51.123Z,75.33
2019-02-28T03:03:18.189Z,77.70
2019-02-28T03:05:48.681Z,75.43
2019-02-28T03:08:18.985Z,76.37
2019-02-28T03:10:51.896Z,78.97
2019-02-28T03:13:21.020Z,80.57
2019-02-28T03:15:51.730Z,80.60
2019-02-28T03:18:21.950Z,70.77
2019-02-28T03:20:52.166Z,69.53
2019-02-28T03:23:22.388Z,76.37
2019-02-28T03:25:52.592Z,74.50
2019-02-28T03:28:22.817Z,71.83
2019-02-28T03:30:53.010Z,71.93
2019-02-28T03:33:27.471Z,74.93
2019-02-28T03:35:55.151Z,71.43
2019-02-28T03:38:25.442Z,73.93
2019-02-28T03:40:55.812Z,69.40
2019-02-28T03:43:26.137Z,72.97
2019-02-28T03:45:56.396Z,75.27
2019-02-28T03:48:26.997Z,71.73
2019-02-28T03:50:57.239Z,75.70
2019-02-28T03:53:27.518Z,79.33
2019-02-28T03:55:57.652Z,71.83
2019-02-28T03:58:27.899Z,80.83
2019-02-28T04:00:58.502Z,82.47
2019-02-28T04:03:33.486Z,70.23
2019-02-28T04:06:03.641Z,76.40
2019-02-28T04:08:32.857Z,74.03
2019-02-28T04:11:03.082Z,70.17
2019-02-28T04:13:33.372Z,72.60
2019-02-28T04:16:09.209Z,77.13
2019-02-28T04:18:35.821Z,74.00
2019-02-28T04:21:10.419Z,83.80
2019-02-28T04:23:38.012Z,75.43
2019-02-28T04:26:08.202Z,78.93
2019-02-28T04:28:39.562Z,82.10
2019-02-28T04:31:10.174Z,74.27
2019-02-28T04:33:40.386Z,65.30
2019-02-28T04:36:10.552Z,76.37
2019-02-28T04:38:40.763Z,74.47
2019-02-28T04:41:12.025Z,71.73
2019-02-28T04:43:44.355Z,76.83
2019-02-28T04:46:14.444Z,75.77
2019-02-28T04:48:45.686Z,76.47
2019-02-28T04:51:16.876Z,80.00
2019-02-28T04:53:47.088Z,71.23
2019-02-28T04:56:17.700Z,80.10
2019-02-28T04:58:47.902Z,69.97
2019-02-28T05:01:18.105Z,84.40
2019-02-28T05:03:49.452Z,83.30
2019-02-28T05:06:21.184Z,76.87
2019-02-28T05:08:51.894Z,76.83
2019-02-28T05:11:22.404Z,77.33
2019-02-28T05:13:52.632Z,74.60
2019-02-28T05:16:22.776Z,81.30
2019-02-28T05:18:54.105Z,77.17
2019-02-28T05:21:24.335Z,82.87
2019-02-28T05:23:54.492Z,78.07
2019-02-28T05:26:26.315Z,83.37
2019-02-28T05:28:56.868Z,82.70
2019-02-28T05:31:27.951Z,79.90
2019-02-28T05:33:58.358Z,71.57
2019-02-28T05:36:28.616Z,67.47
2019-02-28T05:38:58.851Z,79.43
2019-02-28T05:41:29.113Z,72.87
2019-02-28T05:43:59.311Z,69.60
2019-02-28T05:46:29.513Z,74.93
2019-02-28T05:48:59.770Z,78.00
2019-02-28T05:51:29.874Z,80.03
2019-02-28T05:54:00.448Z,71.57
2019-02-28T05:56:33.133Z,67.97
2019-02-28T05:59:02.838Z,71.30
2019-02-28T06:01:33.009Z,74.97
2019-02-28T06:04:04.048Z,74.73
2019-02-28T06:06:34.377Z,79.77
2019-02-28T06:09:05.713Z,74.83
2019-02-28T06:11:35.921Z,66.00
2019-02-28T06:14:06.114Z,72.83
2019-02-28T06:16:36.370Z,83.33
2019-02-28T06:19:08.239Z,79.03
2019-02-28T06:21:39.323Z,74.10
2019-02-28T06:24:12.737Z,79.10
2019-02-28T06:26:41.477Z,75.03
2019-02-28T06:29:11.719Z,77.03
2019-02-28T06:31:41.903Z,78.97
2019-02-28T06:34:12.157Z,74.93
2019-02-28T06:36:42.352Z,72.20
2019-02-28T06:39:12.942Z,81.30
2019-02-28T06:41:43.204Z,71.57
2019-02-28T06:44:14.888Z,77.60
2019-02-28T06:46:45.082Z,78.33
2019-02-28T06:49:15.308Z,78.13
2019-02-28T06:51:48.351Z,79.87
2019-02-28T06:54:17.443Z,81.20
2019-02-28T06:56:47.647Z,73.77
2019-02-28T06:59:18.180Z,74.43
2019-02-28T07:01:48.420Z,73.90
2019-02-28T07:04:18.998Z,74.47
2019-02-28T07:06:49.183Z,77.10
2019-02-28T07:09:19.696Z,80.23
2019-02-28T07:11:51.287Z,80.57
2019-02-28T07:14:22.168Z,69.73
2019-02-28T07:16:52.412Z,73.60
2019-02-28T07:19:26.168Z,75.90
2019-02-28T07:21:54.776Z,76.67
2019-02-28T07:24:24.992Z,75.40
2019-02-28T07:26:55.188Z,80.93
2019-02-28T07:29:25.352Z,65.50
2019-02-28T07:32:00.016Z,77.83
2019-02-28T07:34:28.054Z,76.03
2019-02-28T07:37:05.663Z,76.87
2019-02-28T07:39:36.587Z,79.97
2019-02-28T07:42:09.308Z,77.60
2019-02-28T07:44:40.009Z,81.33
2019-02-28T07:50:02.625Z,68.00
2019-02-28T07:52:33.787Z,75.23
2019-02-28T07:55:04.943Z,80.17
2019-02-28T07:57:36.714Z,75.80
2019-02-28T08:00:16.820Z,74.27
2019-02-28T08:02:42.481Z,74.77
2019-02-28T08:05:13.663Z,76.73
2019-02-28T08:07:50.284Z,74.73
2019-02-28T08:10:17.930Z,71.03
2019-02-28T08:12:48.115Z,74.07
2019-02-28T08:15:22.424Z,77.27
2019-02-28T08:17:52.419Z,74.17
2019-02-28T08:20:22.687Z,73.20
2019-02-28T08:22:56.756Z,81.03
2019-02-28T08:25:25.170Z,69.53
2019-02-28T08:27:59.371Z,77.33
2019-02-28T08:30:27.359Z,75.03
2019-02-28T08:32:57.858Z,70.80
2019-02-28T08:35:33.979Z,72.20
2019-02-28T08:37:59.931Z,72.47
2019-02-28T08:40:30.205Z,69.43
2019-02-28T08:43:00.768Z,83.23
2019-02-28T08:45:33.204Z,77.00
2019-02-28T08:48:02.955Z,76.80
2019-02-28T08:50:33.169Z,77.17
2019-02-28T08:53:03.628Z,73.37
2019-02-28T08:55:34.680Z,82.00
2019-02-28T08:58:06.700Z,79.37
2019-02-28T09:00:37.796Z,82.63
2019-02-28T09:03:08.815Z,80.90
2019-02-28T09:05:40.072Z,80.77
2019-02-28T09:08:10.260Z,79.50
2019-02-28T09:10:40.496Z,71.40
2019-02-28T09:13:11.014Z,77.53
2019-02-28T09:15:41.460Z,78.17
2019-02-28T09:18:11.652Z,79.50
2019-02-28T09:20:45.119Z,72.23
2019-02-28T09:23:15.545Z,79.30
2019-02-28T09:25:46.872Z,79.73
2019-02-28T09:28:17.091Z,81.77
2019-02-28T09:30:47.800Z,78.93
2019-02-28T09:33:19.354Z,77.13
2019-02-28T09:35:50.716Z,82.90
2019-02-28T09:38:20.924Z,85.37
2019-02-28T09:40:51.149Z,83.67
2019-02-28T09:43:23.924Z,92.00
2019-02-28T09:45:53.559Z,86.37
2019-02-28T09:48:23.762Z,94.20
2019-02-28T09:50:57.767Z,92.87
2019-02-28T09:53:26.621Z,97.03
2019-02-28T09:55:56.994Z,101.50
2019-02-28T09:58:29.320Z,93.70
2019-02-28T10:00:59.017Z,96.93
2019-02-28T10:03:29.629Z,100.93
2019-02-28T10:06:00.145Z,101.77
2019-02-28T10:08:30.303Z,106.70
2019-02-28T10:11:00.577Z,107.33
2019-02-28T10:13:31.122Z,114.43
2019-02-28T10:16:01.531Z,106.10
2019-02-28T10:18:31.890Z,100.80
2019-02-28T10:21:02.718Z,104.13
2019-02-28T10:23:33.099Z,97.93
2019-02-28T10:26:03.618Z,91.47
2019-02-28T10:28:34.113Z,93.30
2019-02-28T10:31:04.441Z,90.27
2019-02-28T10:33:34.633Z,89.17
2019-02-28T10:36:04.882Z,83.67
2019-02-28T10:38:35.180Z,80.10
2019-02-28T10:41:06.017Z,75.93
2019-02-28T10:43:36.165Z,68.03
2019-02-28T10:46:06.785Z,70.77
2019-02-28T10:48:41.729Z,73.10
2019-02-28T10:51:13.890Z,65.87
2019-02-28T10:53:40.911Z,61.47
2019-02-28T10:56:11.234Z,47.03
2019-02-28T10:58:41.571Z,52.53
2019-02-28T11:01:13.247Z,45.67
2019-02-28T11:03:43.511Z,42.00
2019-02-28T11:06:14.041Z,35.13
2019-02-28T11:08:47.535Z,36.40
2019-02-28T11:11:18.007Z,29.47
2019-02-28T11:13:48.231Z,29.50
2019-02-28T11:16:20.434Z,25.53
2019-02-28T11:18:50.454Z,24.37
2019-02-28T11:21:21.417Z,22.20
2019-02-28T11:23:51.878Z,22.77
2019-02-28T11:26:22.102Z,21.30
2019-02-28T11:28:52.291Z,23.37
2019-02-28T11:31:22.534Z,19.77
2019-02-28T11:33:53.116Z,22.03
2019-02-28T11:36:24.498Z,25.93
2019-02-28T11:38:55.432Z,21.43
2019-02-28T11:41:26.541Z,19.80
2019-02-28T11:43:57.165Z,18.97
2019-02-28T11:46:27.372Z,25.03
2019-02-28T11:48:57.586Z,15.97
2019-02-28T11:51:27.816Z,13.67
2019-02-28T11:53:58.024Z,13.67
2019-02-28T11:56:29.447Z,16.37
2019-02-28T11:59:01.268Z,12.47
2019-02-28T12:01:31.580Z,15.50
2019-02-28T12:04:01.760Z,18.33
2019-02-28T12:06:33.059Z,18.07
2019-02-28T12:09:05.164Z,17.50
2019-02-28T12:11:36.553Z,11.53
2019-02-28T12:14:08.113Z,11.90
2019-02-28T12:16:38.421Z,18.83
2019-02-28T12:19:08.607Z,16.03
2019-02-28T12:21:38.905Z,15.77
2019-02-28T12:24:09.235Z,16.57
2019-02-28T12:26:39.812Z,14.90
2019-02-28T12:29:12.891Z,15.83
2019-02-28T12:31:41.987Z,16.83
2019-02-28T12:34:12.132Z,13.03
2019-02-28T12:36:42.701Z,14.03
2019-02-28T12:39:12.901Z,14.20
2019-02-28T12:41:43.405Z,14.20
2019-02-28T12:44:15.380Z,15.20
2019-02-28T12:46:46.037Z,18.17
2019-02-28T12:49:21.822Z,14.17
2019-02-28T12:51:48.424Z,11.67
2019-02-28T12:54:19.310Z,14.83
2019-02-28T12:56:49.609Z,13.03
2019-02-28T12:59:20.255Z,14.13
2019-02-28T13:01:50.488Z,12.27
2019-02-28T13:04:20.594Z,15.50
2019-02-28T13:06:51.221Z,9.07
2019-02-28T13:09:21.870Z,10.93
2019-02-28T13:11:52.425Z,12.73
2019-02-28T13:14:22.613Z,11.07
2019-02-28T13:16:54.591Z,11.10
2019-02-28T13:19:25.455Z,12.57
2019-02-28T13:21:55.680Z,10.37
2019-02-28T13:24:26.075Z,12.60
2019-02-28T13:26:56.373Z,10.13
2019-02-28T13:29:28.769Z,11.20
2019-02-28T13:32:01.411Z,13.60
2019-02-28T13:34:30.561Z,11.40
2019-02-28T13:37:03.187Z,10.90
2019-02-28T13:39:33.135Z,13.07
2019-02-28T13:42:04.326Z,13.47
2019-02-28T13:44:36.450Z,16.73
2019-02-28T13:47:09.902Z,11.33
2019-02-28T13:49:38.626Z,15.97
2019-02-28T13:52:10.367Z,13.27
2019-02-28T13:54:42.448Z,13.20
2019-02-28T13:57:12.827Z,11.60
2019-02-28T13:59:43.017Z,13.07
2019-02-28T14:02:13.727Z,14.60
2019-02-28T14:04:44.055Z,10.90
2019-02-28T14:07:14.279Z,13.23
2019-02-28T14:09:44.466Z,18.57
2019-02-28T14:12:16.951Z,9.77
2019-02-28T14:14:46.987Z,10.37
2019-02-28T14:17:17.627Z,10.00
2019-02-28T14:19:47.875Z,11.43
2019-02-28T14:22:18.167Z,11.13
2019-02-28T14:24:48.410Z,8.10
2019-02-28T14:27:21.588Z,10.23
2019-02-28T14:29:50.636Z,8.93
2019-02-28T14:32:20.812Z,9.13
2019-02-28T14:34:51.034Z,9.50
2019-02-28T14:37:21.328Z,11.40
2019-02-28T14:39:51.875Z,8.93
2019-02-28T14:42:22.630Z,7.73
2019-02-28T14:44:52.800Z,10.53
2019-02-28T14:47:24.880Z,7.90
2019-02-28T14:49:55.229Z,5.87
2019-02-28T14:52:25.792Z,5.77
2019-02-28T14:54:57.075Z,7.53
2019-02-28T14:57:28.474Z,8.73
2019-02-28T15:00:00.107Z,5.80
2019-02-28T15:02:30.488Z,4.93
2019-02-28T15:05:00.682Z,7.37
2019-02-28T15:07:35.271Z,7.13
2019-02-28T15:10:05.568Z,9.13
2019-02-28T15:12:35.770Z,5.50
2019-02-28T15:15:08.260Z,4.70
2019-02-28T15:17:39.647Z,7.40
2019-02-28T15:20:13.377Z,6.37
2019-02-28T15:22:43.029Z,5.87
2019-02-28T15:25:15.342Z,8.50
2019-02-28T15:27:46.467Z,7.50
2019-02-28T15:30:22.073Z,6.03
2019-02-28T15:32:54.233Z,2.63
2019-02-28T15:35:24.291Z,7.17
2019-02-28T15:37:54.880Z,5.53
2019-02-28T15:40:27.406Z,8.93
2019-02-28T15:42:57.638Z,9.13
2019-02-28T15:45:27.861Z,5.90
2019-02-28T15:48:00.243Z,6.70
2019-02-28T15:50:30.405Z,8.90
2019-02-28T15:53:01.328Z,6.03
2019-02-28T15:55:35.153Z,7.60
2019-02-28T15:58:05.905Z,7.83
2019-02-28T16:00:37.240Z,8.23
2019-02-28T16:03:07.474Z,8.53
2019-02-28T16:05:42.713Z,11.43
2019-02-28T16:08:10.842Z,6.00
2019-02-28T16:10:52.610Z,9.90
2019-02-28T16:13:14.309Z,9.13
2019-02-28T16:15:46.279Z,8.50
2019-02-28T16:18:16.440Z,11.23
2019-02-28T16:20:46.727Z,11.30
2019-02-28T16:23:16.981Z,14.93
2019-02-28T16:25:50.071Z,13.70
2019-02-28T16:28:19.899Z,12.27
2019-02-28T16:30:50.317Z,12.07
2019-02-28T16:33:24.751Z,10.67
2019-02-28T16:35:53.273Z,12.57
2019-02-28T16:38:23.879Z,13.57
2019-02-28T16:40:54.106Z,15.77
2019-02-28T16:43:24.316Z,11.57
2019-02-28T16:45:54.652Z,14.30
2019-02-28T16:48:24.890Z,11.10
2019-02-28T16:50:56.934Z,13.00
2019-02-28T16:53:27.036Z,10.83
2019-02-28T16:55:59.167Z,9.60
2019-02-28T16:58:29.243Z,13.27
2019-02-28T17:00:59.437Z,13.13
2019-02-28T17:03:29.716Z,12.40
2019-02-28T17:06:01.724Z,12.97
2019-02-28T17:08:36.074Z,15.10
2019-02-28T17:11:06.360Z,11.87
2019-02-28T17:13:47.816Z,14.00
2019-02-28T17:16:25.122Z,8.57
2019-02-28T17:18:56.878Z,12.80
2019-02-28T17:21:27.635Z,9.93
2019-02-28T17:23:57.924Z,12.70
2019-02-28T17:27:05.735Z,8.90
2019-02-28T17:29:44.725Z,10.00
2019-02-28T17:32:15.239Z,11.67
2019-02-28T17:34:45.466Z,8.37
2019-02-28T17:37:15.670Z,8.97
2019-02-28T17:39:47.446Z,9.03
2019-02-28T17:42:18.707Z,10.60
2019-02-28T17:45:17.208Z,9.27
2019-02-28T17:48:24.998Z,9.93
2019-02-28T17:51:23.392Z,22.80
2019-02-28T17:54:20.798Z,10.40
2019-02-28T17:57:27.656Z,7.77
2019-02-28T18:00:52.910Z,7.80
2019-02-28T18:03:44.962Z,10.00
2019-02-28T18:07:04.096Z,10.50
2019-02-28T18:10:07.147Z,9.60
2019-02-28T18:12:56.500Z,11.50
2019-02-28T18:15:50.091Z,11.63
2019-02-28T18:18:59.334Z,11.07
2019-02-28T18:22:00.969Z,7.77
2019-02-28T18:24:44.636Z,10.30
2019-02-28T18:27:29.693Z,12.27
2019-02-28T18:30:47.128Z,9.47
2019-02-28T18:33:19.458Z,10.33
2019-02-28T18:35:49.894Z,8.63
2019-02-28T18:38:20.143Z,11.33
2019-02-28T18:40:50.427Z,11.37
2019-02-28T18:43:20.703Z,11.40
2019-02-28T18:45:53.616Z,11.47
2019-02-28T18:48:22.885Z,11.13
2019-02-28T18:50:53.102Z,11.60
2019-02-28T18:53:23.474Z,12.77
2019-02-28T18:55:54.109Z,14.07
2019-02-28T18:58:24.432Z,14.13
2019-02-28T19:00:54.641Z,10.83
2019-02-28T19:03:24.883Z,15.47
2019-02-28T19:05:55.879Z,14.20
2019-02-28T19:08:26.160Z,12.93
2019-02-28T19:10:56.439Z,10.53
2019-02-28T19:13:26.693Z,10.70
2019-02-28T19:15:57.037Z,13.93
2019-02-28T19:18:27.342Z,14.07
2019-02-28T19:20:57.678Z,11.30
2019-02-28T19:23:27.875Z,9.30
2019-02-28T19:25:58.385Z,13.27
2019-02-28T19:28:31.434Z,12.33
2019-02-28T19:31:01.721Z,11.33
2019-02-28T19:33:32.339Z,16.33
2019-02-28T19:36:02.793Z,11.77
2019-02-28T19:38:32.984Z,8.73
2019-02-28T19:41:03.360Z,13.70
2019-02-28T19:43:33.518Z,10.23
2019-02-28T19:46:04.081Z,12.57
2019-02-28T19:48:37.090Z,13.00
2019-02-28T19:51:07.393Z,10.07
2019-02-28T19:53:37.617Z,15.07
2019-02-28T19:56:07.905Z,10.50
2019-02-28T19:58:38.052Z,10.07
2019-02-28T20:01:08.726Z,7.97
2019-02-28T20:03:39.276Z,11.23
2019-02-28T20:06:09.480Z,9.97
2019-02-28T20:08:40.371Z,9.27
2019-02-28T20:11:10.533Z,10.17
2019-02-28T20:13:41.183Z,10.13
2019-02-28T20:16:11.523Z,13.03
2019-02-28T20:18:42.130Z,13.93
2019-02-28T20:21:12.893Z,10.27
2019-02-28T20:23:43.195Z,10.97
2019-02-28T20:26:13.518Z,10.47
2019-02-28T20:28:43.801Z,10.67
2019-02-28T20:31:14.018Z,10.13
2019-02-28T20:33:44.336Z,13.50
2019-02-28T20:36:15.052Z,9.60
2019-02-28T20:38:45.322Z,11.87
2019-02-28T20:41:15.514Z,11.50
2019-02-28T20:43:46.190Z,12.40
2019-02-28T20:46:16.450Z,14.57
2019-02-28T20:48:46.686Z,14.17
2019-02-28T20:51:16.969Z,13.37
2019-02-28T20:53:47.173Z,14.03
2019-02-28T20:56:17.465Z,11.20
2019-02-28T20:58:47.725Z,12.37
2019-02-28T21:01:18.004Z,15.70
2019-02-28T21:03:48.343Z,10.23
2019-02-28T21:06:18.645Z,14.70
2019-02-28T21:08:48.825Z,14.13
2019-02-28T21:11:19.109Z,14.00
2019-02-28T21:13:49.371Z,14.10
2019-02-28T21:16:20.008Z,12.93
2019-02-28T21:18:50.801Z,12.27
2019-02-28T21:21:21.048Z,12.67
2019-02-28T21:23:51.375Z,13.33
2019-02-28T21:26:21.613Z,11.57
2019-02-28T21:28:53.647Z,14.80
2019-02-28T21:31:23.795Z,13.57
2019-02-28T21:33:54.083Z,11.87
2019-02-28T21:36:24.727Z,17.87
2019-02-28T21:38:55.038Z,13.57
2019-02-28T21:41:25.331Z,18.50
2019-02-28T21:43:56.477Z,13.27
2019-02-28T21:46:26.739Z,16.03
2019-02-28T21:48:57.291Z,13.90
2019-02-28T21:51:27.605Z,15.37
2019-02-28T21:53:58.691Z,16.53
2019-02-28T21:56:28.963Z,14.43
2019-02-28T21:59:00.269Z,16.60
2019-02-28T22:01:30.839Z,15.77
2019-02-28T22:04:01.099Z,16.73
2019-02-28T22:06:31.287Z,21.67
2019-02-28T22:09:01.552Z,18.93
2019-02-28T22:11:33.462Z,15.47
2019-02-28T22:14:03.643Z,16.73
2019-02-28T22:16:33.876Z,15.73
2019-02-28T22:19:04.062Z,19.07
2019-02-28T22:21:34.280Z,18.70
2019-02-28T22:24:05.709Z,18.20
2019-02-28T22:26:35.924Z,21.30
2019-02-28T22:29:06.136Z,24.97
2019-02-28T22:31:54.116Z,19.00
2019-02-28T22:34:43.356Z,21.83
2019-02-28T22:37:13.564Z,23.93
2019-02-28T22:39:43.764Z,22.27
2019-02-28T22:42:21.724Z,21.43
2019-02-28T22:44:45.959Z,22.13
2019-02-28T22:47:16.176Z,20.17
2019-02-28T22:49:46.416Z,22.97
2019-02-28T22:52:17.048Z,23.13
2019-02-28T22:54:47.644Z,26.23
2019-02-28T22:57:17.857Z,18.33
2019-02-28T22:59:48.052Z,24.13
2019-02-28T23:02:19.345Z,24.07
2019-02-28T23:04:49.616Z,18.87
2019-02-28T23:07:20.861Z,25.63
2019-02-28T23:09:51.080Z,20.90
2019-02-28T23:12:21.348Z,23.77
2019-02-28T23:14:51.529Z,21.53
2019-02-28T23:17:21.792Z,20.63
2019-02-28T23:19:52.312Z,22.50
2019-02-28T23:22:22.517Z,18.87
2019-02-28T23:24:53.061Z,17.83
2019-02-28T23:27:23.218Z,18.67
2019-02-28T23:30:27.725Z,17.73
2019-02-28T23:33:05.112Z,20.73
2019-02-28T23:35:38.075Z,17.93
2019-02-28T23:38:08.285Z,18.87
2019-02-28T23:40:38.590Z,19.77
2019-02-28T23:43:09.093Z,21.03
2019-02-28T23:45:39.282Z,17.77
2019-02-28T23:48:09.478Z,22.90
2019-02-28T23:50:39.680Z,16.93
2019-02-28T23:53:09.910Z,20.37
2019-02-28T23:55:40.545Z,19.70
2019-02-28T23:58:10.849Z,23.30
